This is the latest recevied weather packets stored in our database for station/object URMM. If no packets are shown the sender has not sent any weather packets the latest 10 day(s).
| Time | Temp. | Humidity | Pressure | Rain* | Wind** | Luminosity | Snow |
|---|---|---|---|---|---|---|---|
| 1777278661 | 10° C | 66% | 1016 hPa | - | - | - | - |
| 1777276859 | 10° C | 66% | 1015 hPa | - | - | - | - |
| 1777275060 | 10° C | 66% | 1015 hPa | - | - | - | - |
| 1777273268 | 8.89° C | 70% | 1015 hPa | - | - | - | - |
| 1777271459 | 10° C | 71% | 1014 hPa | - | - | - | - |
| 1777269659 | 10° C | 71% | 1014 hPa | - | - | - | - |
| 1777267859 | 10° C | 76% | 1014 hPa | - | - | - | - |
| 1777266059 | 10.56° C | 71% | 1013 hPa | - | - | - | - |
| 1777262459 | 8.89° C | 75% | 1012 hPa | - | - | - | - |
| 1777260659 | 10° C | 71% | 1012 hPa | - | - | - | - |
| 1777258861 | 10° C | 71% | 1012 hPa | - | - | - | - |
| 1777257059 | 10° C | 66% | 1012 hPa | - | - | - | - |
| 1777255263 | 7.78° C | 75% | 1011 hPa | - | - | - | - |
| 1777253461 | 5.56° C | 86% | 1011 hPa | - | - | - | - |
| 1777251661 | 5.56° C | 93% | 1011 hPa | - | - | - | - |
| 1777249860 | 5° C | 93% | 1010 hPa | - | - | - | - |
| 1777248060 | 5.56° C | 86% | 1009 hPa | - | - | - | - |
| 1777246260 | 5.56° C | 93% | 1009 hPa | - | - | - | - |
| 1777244460 | 6.67° C | 93% | 1009 hPa | - | - | - | - |
| 1777242660 | 6.67° C | 93% | 1009 hPa | - | - | - | - |
| 1777240860 | 7.78° C | 87% | 1009 hPa | - | - | - | - |
| 1777239060 | 8.89° C | 81% | 1009 hPa | - | - | - | - |
| 1777237260 | 10° C | 76% | 1009 hPa | - | - | - | - |
| 1777235461 | 10.56° C | 71% | 1009 hPa | - | - | - | - |
| 1777233660 | 10.56° C | 66% | 1010 hPa | - | - | - | - |
* Rain since midnight (hover to see other rain measurements)
** Current wind speed in m/s (hover to see current wind gust speed)